Maldonado, Uruguay

12:07 PM UYT on July 26, 2016 (GMT -0300)
Maldonado, Centro, Capital Departamental | | Change Station

Elev 112 ft 34.91 °S, 54.96 °W | Updated 4 minutes ago

Drizzle
Drizzle
50.9 °F
Feels Like 50.9 °F
N
5.8
Wind Variable Wind from WNW

Today
High -- | Low -- °F
--% Chance of Precip.
Yesterday
High -- | Low -- °F
Precip. -- in
Pressure 29.59 in
Visibility 6.2 miles
Clouds Mostly Cloudy 600 ft
Overcast 6000 ft
Dew Point 50 °F
Humidity 98%
Rainfall 0.59 in
Snow Depth Not available.
7:38 AM 5:54 PM
Waning Gibbous, 54% visible
METAR SULS 261500Z 32020KT 9999 DZ BKN006 OVC060 11/10 Q1002
Pressure 29.59 in
Visibility 6.2 miles
Clouds Mostly Cloudy 600 ft
Overcast 6000 ft
Dew Point 50 °F
Humidity 98%
Rainfall 0.59 in
Snow Depth Not available.
7:38 AM 5:54 PM
Waning Gibbous, 54% visible
METAR SULS 261500Z 32020KT 9999 DZ BKN006 OVC060 11/10 Q1002

10-Day Weather Forecast

No radar image for this location.
×

Almanac

Astronomy

Jul. 26, 2016 Rise Set
Actual Time
Civil Twilight
Nautical Twilight
Astronomical Twilight
Moon
Length of Visible Light
Length of Day
Tomorrow will be .
, % of the Moon is Illuminated

Today's Extremes

Country Highs Country Lows

Community

WunderPhotos

Upload Photos

1,927,608 photos uploaded!

WunderBlog® & News

Nearby

Air Quality

  Air Quality AQ Index Pollutant
Not available.

Snow Depth

Station Depth Elevation

Earthquake Activity

City Distance Mag. Time & Date
Minimum magnitude displayed is 2.5.

Coastal Water Temperatures

Place Temperature

Stations

Nearby Weather Stations

Station Location Temp. Windchill Dew Point Humidity Wind Precip. Elev Updated Type